Terminal Aerodrome Forecast
Issued by NWS

Home | Current Version | Previous Version | Graphics & Text | Print | Product List | Glossary On
Versions: 1 2 3 4 5 6 7 8 9 10 11 12 13 14 15 16 17 18 19 20 21 22 23 24 25 26 27 28 29 30 31 32 33
000
FTUS43 KLOT 150300 AAA
TAFDPA
TAF AMD
KDPA 150300Z 1503/1524 20003KT P6SM SCT120 BKN250
     FM151500 25006KT P6SM -RA BKN040 BKN080 BKN120
     FM151800 28008KT 6SM -RA SCT010 BKN015 OVC035
     FM152100 35010KT P6SM SCT012 BKN020 BKN040=

USA.gov is the U.S. government's official web portal to all federal, state and local government web resources and services.